createdAt,value
2022-12-22T00:02:01.124Z,99289.00
2022-12-22T00:04:50.415Z,99288.00
2022-12-22T00:07:36.925Z,99283.00
2022-12-22T00:10:24.303Z,99283.00
2022-12-22T00:13:10.496Z,99275.00
2022-12-22T00:15:56.290Z,99264.00
2022-12-22T00:18:42.086Z,99267.00
2022-12-22T00:21:31.931Z,99269.00
2022-12-22T00:24:18.434Z,99261.00
2022-12-22T00:27:05.550Z,99257.00
2022-12-22T00:30:01.425Z,99241.00
2022-12-22T00:32:53.638Z,99241.00
2022-12-22T00:35:43.657Z,99233.00
2022-12-22T00:38:39.983Z,99237.00
2022-12-22T00:41:26.043Z,99231.00
2022-12-22T00:44:12.277Z,99222.00
2022-12-22T00:47:00.624Z,99219.00
2022-12-22T00:49:53.407Z,99214.00
2022-12-22T00:52:41.549Z,99211.00
2022-12-22T00:55:39.861Z,99209.00
2022-12-22T00:58:33.674Z,99203.00
2022-12-22T01:01:19.754Z,99212.00
2022-12-22T01:04:06.074Z,99203.00
2022-12-22T01:06:54.564Z,99195.00
2022-12-22T01:09:41.625Z,99187.00
2022-12-22T01:12:39.875Z,99186.00
2022-12-22T01:15:36.235Z,99190.00
2022-12-22T01:18:23.420Z,99189.00
2022-12-22T01:21:10.763Z,99192.00
2022-12-22T01:23:58.372Z,99191.00
2022-12-22T01:26:44.447Z,99195.00
2022-12-22T01:29:31.223Z,99196.00
2022-12-22T01:32:17.512Z,99192.00
2022-12-22T01:35:03.649Z,99190.00
2022-12-22T01:37:49.975Z,99189.00
2022-12-22T01:40:42.126Z,99175.00
2022-12-22T01:43:45.818Z,99175.00
2022-12-22T01:47:03.650Z,99163.00
2022-12-22T01:50:00.538Z,99173.00
2022-12-22T01:52:52.688Z,99158.00
2022-12-22T01:55:42.465Z,99155.00
2022-12-22T01:58:44.253Z,99141.00
2022-12-22T02:01:30.592Z,99141.00
2022-12-22T02:04:16.745Z,99133.00
2022-12-22T02:07:05.931Z,99141.00
2022-12-22T02:10:13.926Z,99131.00
2022-12-22T02:13:35.283Z,99130.00
2022-12-22T02:16:38.720Z,99125.00
2022-12-22T02:19:52.309Z,99115.00
2022-12-22T02:23:18.576Z,99115.00
2022-12-22T02:26:18.455Z,99122.00
2022-12-22T02:29:07.205Z,99110.00
2022-12-22T02:31:57.082Z,99104.00
2022-12-22T02:34:42.966Z,99097.00
2022-12-22T02:38:05.896Z,99109.00
2022-12-22T02:41:14.171Z,99104.00
2022-12-22T02:44:30.018Z,99102.00
2022-12-22T02:47:48.471Z,99097.00
2022-12-22T02:51:34.350Z,99094.00
2022-12-22T02:54:21.527Z,99084.00
2022-12-22T02:57:07.867Z,99075.00
2022-12-22T02:59:54.099Z,99081.00
2022-12-22T03:02:40.532Z,99074.00
2022-12-22T03:05:26.787Z,99069.00
2022-12-22T03:08:13.667Z,99071.00
2022-12-22T03:11:00.561Z,99068.00
2022-12-22T03:13:46.787Z,99059.00
2022-12-22T03:16:32.777Z,99058.00
2022-12-22T03:19:18.919Z,99052.00
2022-12-22T03:22:05.129Z,99063.00
2022-12-22T03:24:51.553Z,99064.00
2022-12-22T03:27:19.065Z,99044.00
2022-12-22T03:29:46.596Z,99048.00
2022-12-22T03:32:14.078Z,99039.00
2022-12-22T03:34:41.638Z,99026.00
2022-12-22T03:37:09.338Z,99027.00
2022-12-22T03:39:36.923Z,99024.00
2022-12-22T03:42:24.190Z,99024.00
2022-12-22T03:45:11.340Z,99020.00
2022-12-22T03:47:38.859Z,99020.00
2022-12-22T03:50:07.127Z,99020.00
2022-12-22T03:52:34.582Z,99010.00
2022-12-22T03:55:02.226Z,99001.00
2022-12-22T03:57:29.837Z,99003.00
2022-12-22T03:59:57.231Z,98994.00
2022-12-22T04:02:24.935Z,99002.00
2022-12-22T04:04:52.846Z,98989.00
2022-12-22T04:07:20.365Z,98989.00
2022-12-22T04:10:06.231Z,98991.00
2022-12-22T04:12:52.425Z,98995.00
2022-12-22T04:15:20.212Z,98988.00
2022-12-22T04:17:47.771Z,98991.00
2022-12-22T04:20:15.250Z,98994.00
2022-12-22T04:22:42.780Z,98991.00
2022-12-22T04:25:11.360Z,98981.00
2022-12-22T04:27:39.072Z,98989.00
2022-12-22T04:30:08.271Z,98979.00
2022-12-22T04:32:35.900Z,98979.00
2022-12-22T04:35:04.307Z,98979.00
2022-12-22T04:37:31.853Z,98968.00
2022-12-22T04:40:00.289Z,98966.00
2022-12-22T04:42:27.811Z,98965.00
2022-12-22T04:44:55.485Z,98958.00
2022-12-22T04:47:23.371Z,98958.00
2022-12-22T04:49:50.867Z,98949.00
2022-12-22T04:52:18.277Z,98951.00
2022-12-22T04:54:45.826Z,98952.00
2022-12-22T04:57:13.156Z,98949.00
2022-12-22T04:59:40.510Z,98949.00
2022-12-22T05:02:08.168Z,98942.00
2022-12-22T05:04:35.916Z,98939.00
2022-12-22T05:07:03.663Z,98931.00
2022-12-22T05:09:31.017Z,98931.00
2022-12-22T05:11:58.558Z,98920.00
2022-12-22T05:14:26.104Z,98920.00
2022-12-22T05:16:53.552Z,98922.00
2022-12-22T05:19:23.029Z,98903.00
2022-12-22T05:21:53.635Z,98909.00
2022-12-22T05:24:21.235Z,98892.00
2022-12-22T05:26:48.756Z,98896.00
2022-12-22T05:29:15.982Z,98891.00
2022-12-22T05:31:47.088Z,98880.00
2022-12-22T05:34:15.211Z,98885.00
2022-12-22T05:36:42.597Z,98881.00
2022-12-22T05:39:10.108Z,98878.00
2022-12-22T05:41:37.659Z,98877.00
2022-12-22T05:44:05.552Z,98877.00
2022-12-22T05:46:33.348Z,98881.00
2022-12-22T05:49:02.762Z,98878.00
2022-12-22T05:51:30.335Z,98881.00
2022-12-22T05:53:57.983Z,98876.00
2022-12-22T05:56:25.340Z,98874.00
2022-12-22T05:58:52.943Z,98862.00
2022-12-22T06:01:20.986Z,98859.00
2022-12-22T06:03:48.671Z,98856.00
2022-12-22T06:06:16.415Z,98861.00
2022-12-22T06:08:43.821Z,98858.00
2022-12-22T06:11:11.378Z,98857.00
2022-12-22T06:13:38.849Z,98862.00
2022-12-22T06:16:06.841Z,98855.00
2022-12-22T06:18:34.501Z,98852.00
2022-12-22T06:21:02.159Z,98853.00
2022-12-22T06:23:30.171Z,98851.00
2022-12-22T06:26:00.086Z,98856.00
2022-12-22T06:28:28.461Z,98858.00
2022-12-22T06:30:56.295Z,98848.00
2022-12-22T06:33:24.042Z,98844.00
2022-12-22T06:35:58.080Z,98843.00
2022-12-22T06:38:28.391Z,98847.00
2022-12-22T06:40:56.183Z,98840.00
2022-12-22T06:43:26.265Z,98842.00
2022-12-22T06:45:54.539Z,98837.00
2022-12-22T06:48:22.336Z,98837.00
2022-12-22T06:50:49.726Z,98833.00
2022-12-22T06:53:17.685Z,98833.00
2022-12-22T06:55:46.082Z,98828.00
2022-12-22T06:58:15.892Z,98835.00
2022-12-22T07:00:43.865Z,98831.00
2022-12-22T07:03:11.620Z,98839.00
2022-12-22T07:05:39.374Z,98820.00
2022-12-22T07:08:09.146Z,98822.00
2022-12-22T07:10:55.939Z,98832.00
2022-12-22T07:13:24.662Z,98827.00
2022-12-22T07:16:00.137Z,98833.00
2022-12-22T07:18:34.590Z,98826.00
2022-12-22T07:21:03.828Z,98822.00
2022-12-22T07:23:31.767Z,98823.00
2022-12-22T07:26:00.592Z,98825.00
2022-12-22T07:28:28.521Z,98820.00
2022-12-22T07:30:56.282Z,98820.00
2022-12-22T07:33:24.668Z,98816.00
2022-12-22T07:36:22.257Z,98815.00
2022-12-22T07:38:52.217Z,98813.00
2022-12-22T07:41:39.812Z,98804.00
2022-12-22T07:44:08.042Z,98803.00
2022-12-22T07:46:38.833Z,98799.00
2022-12-22T07:49:26.296Z,98800.00
2022-12-22T07:51:56.922Z,98803.00
2022-12-22T07:54:25.915Z,98796.00
2022-12-22T07:56:53.777Z,98797.00
2022-12-22T07:59:21.653Z,98793.00
2022-12-22T08:01:49.427Z,98788.00
2022-12-22T08:04:19.744Z,98785.00
2022-12-22T08:06:47.377Z,98783.00
2022-12-22T08:09:17.570Z,98781.00
2022-12-22T08:11:45.120Z,98778.00
2022-12-22T08:14:12.729Z,98779.00
2022-12-22T08:16:40.451Z,98776.00
2022-12-22T08:19:07.834Z,98776.00
2022-12-22T08:21:35.282Z,98774.00
2022-12-22T08:24:02.639Z,98778.00
2022-12-22T08:26:39.090Z,98776.00
2022-12-22T08:29:15.484Z,98773.00
2022-12-22T08:31:44.304Z,98774.00
2022-12-22T08:34:15.872Z,98776.00
2022-12-22T08:36:51.346Z,98769.00
2022-12-22T08:39:20.612Z,98770.00
2022-12-22T08:41:51.256Z,98765.00
2022-12-22T08:44:24.988Z,98771.00
2022-12-22T08:46:54.631Z,98765.00
2022-12-22T08:49:22.925Z,98761.00
2022-12-22T08:51:50.933Z,98763.00
2022-12-22T08:54:19.475Z,98760.00
2022-12-22T08:56:47.304Z,98773.00
2022-12-22T08:59:15.371Z,98772.00
2022-12-22T09:01:51.002Z,98777.00
2022-12-22T09:04:22.989Z,98766.00
2022-12-22T09:06:53.580Z,98768.00
2022-12-22T09:09:21.418Z,98769.00
2022-12-22T09:11:48.907Z,98770.00
2022-12-22T09:14:16.947Z,98770.00
2022-12-22T09:16:45.067Z,98772.00
2022-12-22T09:19:12.773Z,98767.00
2022-12-22T09:21:40.785Z,98771.00
2022-12-22T09:24:09.075Z,98777.00
2022-12-22T09:26:36.773Z,98768.00
2022-12-22T09:29:05.232Z,98770.00
2022-12-22T09:31:34.372Z,98768.00
2022-12-22T09:34:02.199Z,98761.00
2022-12-22T09:36:34.178Z,98774.00
2022-12-22T09:39:14.358Z,98769.00
2022-12-22T09:41:54.590Z,98764.00
2022-12-22T09:44:53.971Z,98770.00
2022-12-22T09:47:38.945Z,98765.00
2022-12-22T09:50:23.630Z,98770.00
2022-12-22T09:53:04.295Z,98772.00
2022-12-22T09:55:50.094Z,98768.00
2022-12-22T09:58:32.145Z,98764.00
2022-12-22T10:01:28.874Z,98765.00
2022-12-22T10:04:23.836Z,98766.00
2022-12-22T10:07:22.048Z,98774.00
2022-12-22T10:09:51.625Z,98770.00
2022-12-22T10:12:26.181Z,98763.00
2022-12-22T10:14:58.112Z,98779.00
2022-12-22T10:17:32.108Z,98783.00
2022-12-22T10:20:28.014Z,98781.00
2022-12-22T10:23:21.849Z,98773.00
2022-12-22T10:28:58.991Z,98773.00
2022-12-22T10:31:32.645Z,98755.00
2022-12-22T10:34:26.380Z,98774.00
2022-12-22T10:37:00.499Z,98772.00
2022-12-22T10:39:34.625Z,98784.00
2022-12-22T10:42:11.417Z,98778.00
2022-12-22T10:44:40.071Z,98784.00
2022-12-22T10:47:21.282Z,98785.00
2022-12-22T10:52:27.669Z,98781.00
2022-12-22T10:55:15.408Z,98783.00
2022-12-22T10:57:43.279Z,98784.00
2022-12-22T11:00:32.006Z,98797.00
2022-12-22T11:03:02.452Z,98793.00
2022-12-22T11:05:32.141Z,98805.00
2022-12-22T11:08:20.763Z,98806.00
2022-12-22T11:11:06.476Z,98808.00
2022-12-22T11:14:07.139Z,98809.00
2022-12-22T11:17:34.983Z,98810.00
2022-12-22T11:20:23.985Z,98809.00
2022-12-22T11:23:09.362Z,98818.00
2022-12-22T11:26:08.698Z,98815.00
2022-12-22T11:29:23.547Z,98817.00
2022-12-22T11:31:56.850Z,98823.00
2022-12-22T11:34:52.188Z,98828.00
2022-12-22T11:37:37.694Z,98827.00
2022-12-22T11:40:10.941Z,98827.00
2022-12-22T11:43:02.476Z,98823.00
2022-12-22T11:45:57.245Z,98821.00
2022-12-22T11:49:08.170Z,98827.00
2022-12-22T11:52:07.736Z,98830.00
2022-12-22T11:55:14.342Z,98836.00
2022-12-22T11:58:25.481Z,98841.00
2022-12-22T12:01:20.547Z,98845.00
2022-12-22T12:04:16.818Z,98849.00
2022-12-22T12:07:09.483Z,98858.00
2022-12-22T12:10:20.276Z,98863.00
2022-12-22T12:13:04.144Z,98863.00
2022-12-22T12:15:42.209Z,98867.00
2022-12-22T12:18:31.237Z,98863.00
2022-12-22T12:21:29.932Z,98865.00
2022-12-22T12:24:41.370Z,98863.00
2022-12-22T12:27:51.977Z,98873.00
2022-12-22T12:30:38.104Z,98888.00
2022-12-22T12:33:30.824Z,98897.00
2022-12-22T12:36:20.195Z,98905.00
2022-12-22T12:39:54.243Z,98905.00
2022-12-22T12:42:47.377Z,98909.00
2022-12-22T12:45:42.437Z,98914.00
2022-12-22T12:48:22.490Z,98917.00
2022-12-22T12:50:52.768Z,98928.00
2022-12-22T12:53:28.835Z,98935.00
2022-12-22T12:56:08.545Z,98931.00
2022-12-22T12:58:36.004Z,98931.00
2022-12-22T13:01:12.670Z,98925.00
2022-12-22T13:06:50.615Z,98937.00
2022-12-22T13:09:49.359Z,98939.00
2022-12-22T13:12:35.254Z,98947.00
2022-12-22T13:15:03.193Z,98949.00
2022-12-22T13:17:48.259Z,98963.00
2022-12-22T13:20:25.751Z,98975.00
2022-12-22T13:22:57.191Z,98970.00
2022-12-22T13:25:42.808Z,98975.00
2022-12-22T13:28:19.299Z,98982.00
2022-12-22T13:30:54.047Z,98981.00
2022-12-22T13:33:26.037Z,98981.00
2022-12-22T13:35:58.744Z,98983.00
2022-12-22T13:38:37.370Z,98993.00
2022-12-22T13:41:27.117Z,98999.00
2022-12-22T13:44:03.948Z,99002.00
2022-12-22T13:46:35.440Z,99006.00
2022-12-22T13:49:05.085Z,99015.00
2022-12-22T13:51:37.614Z,99020.00
2022-12-22T13:54:17.165Z,99021.00
2022-12-22T13:56:53.008Z,99030.00
2022-12-22T13:59:35.407Z,99030.00
2022-12-22T14:02:09.082Z,99043.00
2022-12-22T14:04:45.999Z,99047.00
2022-12-22T14:07:19.454Z,99044.00
2022-12-22T14:09:52.039Z,99057.00
2022-12-22T14:12:33.069Z,99060.00
2022-12-22T14:15:02.149Z,99062.00
2022-12-22T14:17:36.334Z,99064.00
2022-12-22T14:20:27.129Z,99066.00
2022-12-22T14:23:39.014Z,99068.00
2022-12-22T14:26:10.796Z,99076.00
2022-12-22T14:28:53.364Z,99067.00
2022-12-22T14:31:21.299Z,99073.00
2022-12-22T14:34:05.795Z,99073.00
2022-12-22T14:36:46.207Z,99073.00
2022-12-22T14:39:26.062Z,99069.00
2022-12-22T14:42:12.381Z,99075.00
2022-12-22T14:44:47.724Z,99071.00
2022-12-22T14:47:21.704Z,99078.00
2022-12-22T14:49:54.833Z,99077.00
2022-12-22T14:52:49.492Z,99080.00
2022-12-22T14:55:40.544Z,99087.00
2022-12-22T14:58:10.905Z,99085.00
2022-12-22T15:00:44.698Z,99099.00
2022-12-22T15:03:30.655Z,99093.00
2022-12-22T15:06:27.333Z,99098.00
2022-12-22T15:09:07.366Z,99104.00
2022-12-22T15:11:41.068Z,99107.00
2022-12-22T15:14:18.906Z,99106.00
2022-12-22T15:17:04.655Z,99108.00
2022-12-22T15:19:36.004Z,99114.00
2022-12-22T15:22:07.698Z,99125.00
2022-12-22T15:24:35.489Z,99121.00
2022-12-22T15:27:03.329Z,99111.00
2022-12-22T15:29:31.095Z,99131.00
2022-12-22T15:31:58.747Z,99135.00
2022-12-22T15:34:30.753Z,99139.00
2022-12-22T15:36:58.459Z,99139.00
2022-12-22T15:39:26.045Z,99144.00
2022-12-22T15:42:23.571Z,99147.00
2022-12-22T15:44:50.997Z,99154.00
2022-12-22T15:47:20.244Z,99150.00
2022-12-22T15:49:47.715Z,99155.00
2022-12-22T15:52:16.920Z,99156.00
2022-12-22T15:54:44.795Z,99156.00
2022-12-22T15:57:14.582Z,99157.00
2022-12-22T15:59:42.408Z,99165.00
2022-12-22T16:02:14.057Z,99173.00
2022-12-22T16:04:41.952Z,99173.00
2022-12-22T16:07:12.620Z,99174.00
2022-12-22T16:09:46.435Z,99186.00
2022-12-22T16:12:17.914Z,99178.00
2022-12-22T16:14:51.032Z,99181.00
2022-12-22T16:17:24.568Z,99181.00
2022-12-22T16:19:52.427Z,99184.00
2022-12-22T16:22:34.026Z,99186.00
2022-12-22T16:25:04.957Z,99180.00
2022-12-22T16:27:32.768Z,99186.00
2022-12-22T16:30:00.780Z,99190.00
2022-12-22T16:32:31.502Z,99185.00
2022-12-22T16:35:16.665Z,99189.00
2022-12-22T16:37:44.941Z,99187.00
2022-12-22T16:40:13.665Z,99191.00
2022-12-22T16:45:53.009Z,99197.00
2022-12-22T16:48:32.521Z,99206.00
2022-12-22T16:51:00.138Z,99205.00
2022-12-22T16:53:28.819Z,99211.00
2022-12-22T16:55:58.430Z,99198.00
2022-12-22T16:58:28.624Z,99198.00
2022-12-22T17:00:56.406Z,99194.00
2022-12-22T17:03:26.647Z,99193.00
2022-12-22T17:06:03.814Z,99194.00
2022-12-22T17:08:39.516Z,99182.00
2022-12-22T17:11:11.517Z,99181.00
2022-12-22T17:13:39.717Z,99183.00
2022-12-22T17:16:15.819Z,99176.00
2022-12-22T17:18:43.922Z,99182.00
2022-12-22T17:21:12.666Z,99187.00
2022-12-22T17:23:51.601Z,99191.00
2022-12-22T17:26:25.202Z,99180.00
2022-12-22T17:28:53.305Z,99184.00
2022-12-22T17:31:23.360Z,99190.00
2022-12-22T17:33:56.203Z,99173.00
2022-12-22T17:36:34.187Z,99179.00
2022-12-22T17:39:03.776Z,99179.00
2022-12-22T17:41:31.997Z,99176.00
2022-12-22T17:43:59.682Z,99187.00
2022-12-22T17:46:30.390Z,99184.00
2022-12-22T17:48:58.199Z,99184.00
2022-12-22T17:51:28.811Z,99188.00
2022-12-22T17:53:59.224Z,99184.00
2022-12-22T17:56:28.390Z,99175.00
2022-12-22T17:58:56.191Z,99177.00
2022-12-22T18:01:31.242Z,99167.00
2022-12-22T18:03:59.030Z,99162.00
2022-12-22T18:06:31.829Z,99163.00
2022-12-22T18:08:59.750Z,99156.00
2022-12-22T18:11:27.625Z,99156.00
2022-12-22T18:13:57.470Z,99153.00
2022-12-22T18:16:25.463Z,99150.00
2022-12-22T18:18:52.965Z,99153.00
2022-12-22T18:21:25.025Z,99148.00
2022-12-22T18:23:53.353Z,99151.00
2022-12-22T18:26:25.964Z,99147.00
2022-12-22T18:28:54.637Z,99144.00
2022-12-22T18:31:23.956Z,99147.00
2022-12-22T18:33:52.445Z,99142.00
2022-12-22T18:36:32.688Z,99141.00
2022-12-22T18:39:02.121Z,99143.00
2022-12-22T18:41:35.470Z,99136.00
2022-12-22T18:44:02.955Z,99138.00
2022-12-22T18:46:30.669Z,99137.00
2022-12-22T18:49:05.009Z,99138.00
2022-12-22T18:51:33.012Z,99145.00
2022-12-22T18:54:02.697Z,99145.00
2022-12-22T18:56:30.312Z,99137.00
2022-12-22T18:58:57.736Z,99134.00
2022-12-22T19:01:27.232Z,99142.00
2022-12-22T19:03:59.147Z,99147.00
2022-12-22T19:06:27.080Z,99152.00
2022-12-22T19:08:54.936Z,99143.00
2022-12-22T19:11:33.579Z,99140.00
2022-12-22T19:14:01.095Z,99129.00
2022-12-22T19:16:28.761Z,99128.00
2022-12-22T19:18:58.049Z,99122.00
2022-12-22T19:21:25.616Z,99122.00
2022-12-22T19:23:53.188Z,99116.00
2022-12-22T19:26:27.024Z,99111.00
2022-12-22T19:29:01.341Z,99114.00
2022-12-22T19:31:36.482Z,99107.00
2022-12-22T19:34:07.223Z,99101.00
2022-12-22T19:36:35.320Z,99110.00
2022-12-22T19:39:05.434Z,99109.00
2022-12-22T19:41:51.465Z,99107.00
2022-12-22T19:44:27.466Z,99102.00
2022-12-22T19:46:57.664Z,99098.00
2022-12-22T19:49:28.485Z,99096.00
2022-12-22T19:51:57.352Z,99086.00
2022-12-22T19:54:25.794Z,99082.00
2022-12-22T19:56:57.717Z,99077.00
2022-12-22T19:59:42.917Z,99075.00
2022-12-22T20:02:22.576Z,99073.00
2022-12-22T20:04:51.075Z,99071.00
2022-12-22T20:07:23.823Z,99066.00
2022-12-22T20:09:52.031Z,99056.00
2022-12-22T20:12:34.863Z,99057.00
2022-12-22T20:15:18.779Z,99058.00
2022-12-22T20:17:48.609Z,99061.00
2022-12-22T20:20:23.163Z,99064.00
2022-12-22T20:22:56.022Z,99052.00
2022-12-22T20:25:28.913Z,99056.00
2022-12-22T20:27:56.995Z,99068.00
2022-12-22T20:30:29.283Z,99072.00
2022-12-22T20:32:57.410Z,99071.00
2022-12-22T20:35:25.218Z,99074.00
2022-12-22T20:37:52.855Z,99066.00
2022-12-22T20:40:29.072Z,99067.00
2022-12-22T20:42:58.164Z,99052.00
2022-12-22T20:45:30.211Z,99051.00
2022-12-22T20:48:00.135Z,99050.00
2022-12-22T20:50:30.541Z,99048.00
2022-12-22T20:52:59.483Z,99042.00
2022-12-22T20:55:29.273Z,99031.00
2022-12-22T20:57:57.376Z,99037.00
2022-12-22T21:00:28.782Z,99041.00
2022-12-22T21:03:00.125Z,99036.00
2022-12-22T21:05:28.389Z,99042.00
2022-12-22T21:07:55.920Z,99033.00
2022-12-22T21:10:26.801Z,99024.00
2022-12-22T21:12:54.684Z,99024.00
2022-12-22T21:15:28.354Z,99017.00
2022-12-22T21:17:58.758Z,99011.00
2022-12-22T21:20:29.403Z,99014.00
2022-12-22T21:22:56.927Z,99015.00
2022-12-22T21:25:26.325Z,99009.00
2022-12-22T21:27:54.038Z,99009.00
2022-12-22T21:30:25.295Z,99005.00
2022-12-22T21:32:53.407Z,99003.00
2022-12-22T21:35:34.763Z,99005.00
2022-12-22T21:38:03.210Z,99004.00
2022-12-22T21:40:33.242Z,98997.00
2022-12-22T21:43:00.837Z,98986.00
2022-12-22T21:45:31.987Z,98978.00
2022-12-22T21:48:01.236Z,98978.00
2022-12-22T21:50:33.139Z,98966.00
2022-12-22T21:53:01.985Z,98967.00
2022-12-22T21:55:36.004Z,98965.00
2022-12-22T21:58:05.196Z,98969.00
2022-12-22T22:00:33.780Z,98959.00
2022-12-22T22:03:03.927Z,98966.00
2022-12-22T22:05:39.576Z,98963.00
2022-12-22T22:08:11.372Z,98952.00
2022-12-22T22:10:42.806Z,98963.00
2022-12-22T22:13:17.027Z,98949.00
2022-12-22T22:15:47.210Z,98957.00
2022-12-22T22:18:19.798Z,98949.00
2022-12-22T22:20:48.637Z,98946.00
2022-12-22T22:23:21.761Z,98939.00
2022-12-22T22:25:58.465Z,98930.00
2022-12-22T22:28:26.501Z,98936.00
2022-12-22T22:30:54.405Z,98939.00
2022-12-22T22:33:21.989Z,98932.00
2022-12-22T22:35:49.395Z,98929.00
2022-12-22T22:38:18.190Z,98922.00
2022-12-22T22:40:47.575Z,98922.00
2022-12-22T22:43:15.731Z,98920.00
2022-12-22T22:45:44.294Z,98916.00
2022-12-22T22:48:22.080Z,98906.00
2022-12-22T22:50:51.960Z,98906.00
2022-12-22T22:53:19.514Z,98900.00
2022-12-22T22:55:47.300Z,98906.00
2022-12-22T22:58:15.000Z,98897.00
2022-12-22T23:00:42.461Z,98892.00
2022-12-22T23:03:10.041Z,98892.00
2022-12-22T23:05:37.643Z,98888.00
2022-12-22T23:08:05.422Z,98890.00
2022-12-22T23:10:39.332Z,98883.00
2022-12-22T23:13:09.234Z,98879.00
2022-12-22T23:15:36.778Z,98880.00
2022-12-22T23:18:05.116Z,98874.00
2022-12-22T23:20:33.055Z,98868.00
2022-12-22T23:23:00.845Z,98868.00
2022-12-22T23:25:28.654Z,98871.00
2022-12-22T23:27:56.421Z,98867.00
2022-12-22T23:30:24.000Z,98868.00
2022-12-22T23:32:51.541Z,98867.00
2022-12-22T23:35:19.348Z,98863.00
2022-12-22T23:37:47.158Z,98854.00
2022-12-22T23:40:50.470Z,98852.00
2022-12-22T23:43:02.873Z,98852.00
2022-12-22T23:45:31.849Z,98848.00
2022-12-22T23:47:59.765Z,98853.00
2022-12-22T23:50:28.021Z,98843.00
2022-12-22T23:52:55.670Z,98839.00
2022-12-22T23:55:23.233Z,98841.00
2022-12-22T23:57:52.390Z,98840.00
